Time;durP1;ratioP1;P1;durP2;ratioP2;P2;SDS_P1;SDS_P2;PMS_P1;PMS_P2;Temp;Humidity;BMP_temperature;BMP_pressure;BME280_temperature;BME280_humidity;BME280_pressure;Samples;Min_cycle;Max_cycle;Signal;HPM_P1;HPM_P2
2023/09/17 00:00:36;;;;;;;2.65;2.20;;;;;;;;;;4964302;28;20083;-82
2023/09/17 00:03:03;;;;;;;3.03;2.30;;;;;;;;;;4967529;28;20063;-82
2023/09/17 00:05:30;;;;;;;2.60;2.03;;;;;;;;;;4978413;28;20031;-82
2023/09/17 00:07:55;;;;;;;2.65;2.15;;;;;;;;;;4969667;28;20062;-82
2023/09/17 00:10:22;;;;;;;3.65;2.70;;;;;;;;;;4994815;28;20397;-82
2023/09/17 00:12:47;;;;;;;4.13;2.22;;;;;;;;;;4989352;28;20050;-82
2023/09/17 00:15:13;;;;;;;2.85;1.98;;;;;;;;;;4974521;28;20035;-81
2023/09/17 00:17:38;;;;;;;5.30;2.70;;;;;;;;;;4956948;28;20078;-82
2023/09/17 00:20:07;;;;;;;3.45;2.40;;;;;;;;;;4943540;28;20032;-82
2023/09/17 00:22:32;;;;;;;3.05;2.42;;;;;;;;;;4982159;28;20117;-82
2023/09/17 00:24:57;;;;;;;5.90;2.80;;;;;;;;;;4977764;28;20015;-82
2023/09/17 00:27:23;;;;;;;3.28;2.53;;;;;;;;;;4966137;28;20417;-81
2023/09/17 00:29:48;;;;;;;3.75;2.60;;;;;;;;;;4944312;28;20027;-82
2023/09/17 00:32:13;;;;;;;2.95;2.35;;;;;;;;;;4944682;28;20593;-82
2023/09/17 00:34:39;;;;;;;3.45;2.60;;;;;;;;;;4968079;28;20028;-82
2023/09/17 00:37:04;;;;;;;2.97;2.38;;;;;;;;;;4969053;28;20057;-81
2023/09/17 00:39:29;;;;;;;3.60;2.17;;;;;;;;;;4952452;28;20023;-81
2023/09/17 00:41:55;;;;;;;3.53;2.45;;;;;;;;;;5005840;28;20038;-82
2023/09/17 00:44:20;;;;;;;3.72;2.20;;;;;;;;;;4945136;28;20048;-81
2023/09/17 00:46:46;;;;;;;4.53;2.65;;;;;;;;;;4962162;28;20042;-80
2023/09/17 00:49:14;;;;;;;4.55;2.58;;;;;;;;;;4955014;28;20030;-82
2023/09/17 00:51:41;;;;;;;3.17;2.38;;;;;;;;;;4962083;28;20028;-82
2023/09/17 00:54:07;;;;;;;3.60;2.35;;;;;;;;;;4970069;28;20019;-82
2023/09/17 00:56:33;;;;;;;3.58;2.42;;;;;;;;;;4974723;28;20124;-81
2023/09/17 00:58:59;;;;;;;4.28;2.53;;;;;;;;;;4965280;28;20036;-81
2023/09/17 01:01:25;;;;;;;5.97;2.42;;;;;;;;;;4965126;28;20028;-82
2023/09/17 01:03:50;;;;;;;3.15;2.20;;;;;;;;;;4981093;28;20107;-82
2023/09/17 01:06:16;;;;;;;3.08;2.28;;;;;;;;;;4969738;28;20043;-81
2023/09/17 01:08:41;;;;;;;4.47;2.40;;;;;;;;;;4964268;28;20030;-81
2023/09/17 01:11:09;;;;;;;3.42;2.20;;;;;;;;;;4974317;28;20370;-81
2023/09/17 01:13:39;;;;;;;3.17;2.50;;;;;;;;;;4963860;28;20028;-82
2023/09/17 01:16:05;;;;;;;2.33;2.13;;;;;;;;;;4961786;28;20030;-80
2023/09/17 01:18:32;;;;;;;5.43;2.67;;;;;;;;;;4974275;28;20057;-81
2023/09/17 01:21:04;;;;;;;3.42;2.60;;;;;;;;;;4944086;28;20183;-81
2023/09/17 01:23:38;;;;;;;4.90;2.72;;;;;;;;;;4945423;28;20027;-82
2023/09/17 01:26:29;;;;;;;3.70;2.45;;;;;;;;;;4950522;28;20039;-82
2023/09/17 01:28:56;;;;;;;2.92;2.47;;;;;;;;;;4971215;28;20088;-82
2023/09/17 01:31:21;;;;;;;7.88;2.88;;;;;;;;;;4966492;28;20027;-81
2023/09/17 01:33:48;;;;;;;4.28;2.40;;;;;;;;;;4971215;28;20034;-82
2023/09/17 01:36:33;;;;;;;3.72;2.67;;;;;;;;;;4975379;28;20042;-82
2023/09/17 01:39:12;;;;;;;4.28;2.72;;;;;;;;;;4957330;28;20067;-81
2023/09/17 01:41:39;;;;;;;3.45;2.42;;;;;;;;;;4942456;28;20031;-82
2023/09/17 01:44:07;;;;;;;2.47;2.28;;;;;;;;;;4958582;28;20032;-82
2023/09/17 01:46:33;;;;;;;3.55;2.45;;;;;;;;;;4976881;28;20558;-81
2023/09/17 01:48:59;;;;;;;3.35;2.47;;;;;;;;;;4959505;28;20063;-82
2023/09/17 01:51:26;;;;;;;3.15;2.53;;;;;;;;;;4975501;28;20250;-81
2023/09/17 01:53:52;;;;;;;6.10;4.13;;;;;;;;;;4933346;28;20027;-82
2023/09/17 01:56:17;;;;;;;5.18;3.80;;;;;;;;;;4941546;28;20030;-82
2023/09/17 01:58:43;;;;;;;5.35;3.22;;;;;;;;;;4960747;28;20061;-81
2023/09/17 02:01:08;;;;;;;4.82;3.25;;;;;;;;;;4935501;28;20087;-82
2023/09/17 02:03:33;;;;;;;7.15;3.42;;;;;;;;;;4963118;28;20030;-81
2023/09/17 02:05:59;;;;;;;4.32;3.10;;;;;;;;;;4967549;28;20026;-81
2023/09/17 02:08:25;;;;;;;4.47;2.80;;;;;;;;;;4979381;28;20106;-82
2023/09/17 02:10:50;;;;;;;4.10;3.05;;;;;;;;;;4940486;28;20027;-82
2023/09/17 02:13:15;;;;;;;4.00;2.80;;;;;;;;;;4972950;28;21913;-81
2023/09/17 02:15:41;;;;;;;5.00;2.53;;;;;;;;;;4976669;28;20031;-82
2023/09/17 02:18:07;;;;;;;4.03;2.47;;;;;;;;;;4948926;28;20037;-82
2023/09/17 02:20:37;;;;;;;3.13;2.60;;;;;;;;;;4976905;28;20027;-81
2023/09/17 02:23:03;;;;;;;4.38;2.35;;;;;;;;;;4954740;28;20031;-81
2023/09/17 02:25:29;;;;;;;3.75;2.40;;;;;;;;;;4977943;28;20027;-82
2023/09/17 02:27:54;;;;;;;4.68;2.72;;;;;;;;;;4970747;28;20035;-81
2023/09/17 02:30:20;;;;;;;3.72;2.53;;;;;;;;;;4977664;28;20609;-81
2023/09/17 02:32:45;;;;;;;5.35;2.63;;;;;;;;;;4962045;28;20031;-81
2023/09/17 02:35:11;;;;;;;4.18;2.45;;;;;;;;;;4974690;28;20504;-82
2023/09/17 02:37:36;;;;;;;2.88;2.17;;;;;;;;;;4945017;29;20046;-81
2023/09/17 02:40:04;;;;;;;3.67;2.30;;;;;;;;;;4958935;28;20379;-82
2023/09/17 02:42:30;;;;;;;3.45;2.15;;;;;;;;;;4969179;28;20059;-81
2023/09/17 02:44:55;;;;;;;3.08;2.40;;;;;;;;;;4960440;28;20019;-81
2023/09/17 02:47:21;;;;;;;3.38;2.42;;;;;;;;;;4975029;28;20035;-82
2023/09/17 02:49:46;;;;;;;5.00;2.90;;;;;;;;;;4967174;28;20070;-81
2023/09/17 02:52:11;;;;;;;4.07;2.80;;;;;;;;;;4974476;28;20117;-81
2023/09/17 02:54:37;;;;;;;5.03;2.75;;;;;;;;;;4960427;28;20035;-81
2023/09/17 02:57:02;;;;;;;3.83;2.40;;;;;;;;;;4944673;28;20023;-81
2023/09/17 02:59:28;;;;;;;3.67;2.58;;;;;;;;;;4957695;28;20031;-81
2023/09/17 03:01:53;;;;;;;4.03;2.78;;;;;;;;;;4974410;28;20043;-82
2023/09/17 03:04:18;;;;;;;4.78;2.90;;;;;;;;;;4974992;28;20027;-81
2023/09/17 03:06:44;;;;;;;4.78;2.08;;;;;;;;;;4943092;28;20090;-82
2023/09/17 03:09:11;;;;;;;3.78;2.50;;;;;;;;;;4976694;28;20055;-81
2023/09/17 03:11:37;;;;;;;4.63;2.78;;;;;;;;;;4959488;28;20027;-82
2023/09/17 03:14:02;;;;;;;3.97;2.42;;;;;;;;;;4974166;28;20027;-81
2023/09/17 03:16:29;;;;;;;4.15;2.60;;;;;;;;;;4985747;28;20033;-81
2023/09/17 03:18:55;;;;;;;2.47;2.08;;;;;;;;;;4971625;28;20062;-82
2023/09/17 03:21:21;;;;;;;3.08;2.60;;;;;;;;;;4942763;28;20042;-82
2023/09/17 03:23:46;;;;;;;2.72;2.50;;;;;;;;;;4995895;28;20020;-80
2023/09/17 03:26:11;;;;;;;4.95;2.65;;;;;;;;;;4967104;28;20030;-81
2023/09/17 03:28:37;;;;;;;2.42;2.08;;;;;;;;;;4967449;28;20024;-81
2023/09/17 03:31:04;;;;;;;3.35;2.30;;;;;;;;;;4975226;28;20019;-81
2023/09/17 03:33:30;;;;;;;2.28;1.90;;;;;;;;;;4954927;28;20024;-82
2023/09/17 03:35:56;;;;;;;2.63;2.10;;;;;;;;;;4980274;28;20027;-82
2023/09/17 03:38:21;;;;;;;3.15;2.45;;;;;;;;;;4959437;28;20046;-82
2023/09/17 03:40:46;;;;;;;3.13;2.05;;;;;;;;;;4949444;28;20023;-81
2023/09/17 03:43:12;;;;;;;3.58;2.22;;;;;;;;;;4969377;28;20029;-82
2023/09/17 03:45:37;;;;;;;3.63;2.10;;;;;;;;;;4988914;28;20023;-81
2023/09/17 03:48:04;;;;;;;2.20;2.00;;;;;;;;;;4952782;28;20033;-82
2023/09/17 03:50:30;;;;;;;2.65;2.03;;;;;;;;;;4972259;28;20023;-82
2023/09/17 03:52:58;;;;;;;4.15;2.70;;;;;;;;;;4964621;28;20030;-81
2023/09/17 03:55:24;;;;;;;4.38;2.55;;;;;;;;;;4961537;28;20069;-81
2023/09/17 03:57:50;;;;;;;2.53;2.22;;;;;;;;;;4983052;28;20022;-81
2023/09/17 04:00:17;;;;;;;2.42;2.22;;;;;;;;;;4987158;28;20030;-82
2023/09/17 04:02:43;;;;;;;3.58;2.50;;;;;;;;;;4953978;28;20388;-81
2023/09/17 04:05:11;;;;;;;3.38;2.53;;;;;;;;;;4976883;28;20020;-81
2023/09/17 04:07:46;;;;;;;2.45;2.25;;;;;;;;;;4954423;28;20028;-82
2023/09/17 04:10:13;;;;;;;2.95;2.15;;;;;;;;;;4959416;28;20027;-82
2023/09/17 04:12:40;;;;;;;3.17;2.33;;;;;;;;;;4965400;28;20019;-82
2023/09/17 04:15:10;;;;;;;3.22;2.38;;;;;;;;;;4967927;28;20024;-81
2023/09/17 04:17:36;;;;;;;2.80;2.35;;;;;;;;;;5013109;28;20047;-81
2023/09/17 04:20:03;;;;;;;3.90;2.42;;;;;;;;;;4972399;28;20408;-82
2023/09/17 04:22:28;;;;;;;3.03;2.30;;;;;;;;;;4948695;28;20080;-82
2023/09/17 04:24:54;;;;;;;4.53;2.58;;;;;;;;;;4969021;28;20086;-81
2023/09/17 04:27:19;;;;;;;3.08;2.10;;;;;;;;;;4968421;28;20030;-82
2023/09/17 04:29:45;;;;;;;4.20;2.65;;;;;;;;;;4974821;28;20019;-82
2023/09/17 04:32:12;;;;;;;3.45;2.35;;;;;;;;;;4954855;28;20027;-81
2023/09/17 04:34:37;;;;;;;3.33;2.97;;;;;;;;;;4953738;28;20027;-81
2023/09/17 04:37:03;;;;;;;3.45;2.67;;;;;;;;;;4950944;28;20016;-81
2023/09/17 04:39:28;;;;;;;3.10;2.53;;;;;;;;;;4974032;28;20066;-82
2023/09/17 04:41:53;;;;;;;3.67;2.72;;;;;;;;;;4952280;28;20031;-82
2023/09/17 04:44:19;;;;;;;3.42;2.45;;;;;;;;;;4968485;28;20075;-81
2023/09/17 04:46:44;;;;;;;3.13;2.38;;;;;;;;;;5000632;28;20022;-82
2023/09/17 04:49:10;;;;;;;4.72;2.67;;;;;;;;;;4996887;28;20025;-82
2023/09/17 04:51:35;;;;;;;4.18;2.40;;;;;;;;;;4966048;28;20095;-81
2023/09/17 04:54:02;;;;;;;3.45;2.53;;;;;;;;;;4976909;28;20062;-81
2023/09/17 04:56:28;;;;;;;4.90;2.53;;;;;;;;;;4988413;28;20090;-81
2023/09/17 04:58:53;;;;;;;3.38;2.53;;;;;;;;;;4974157;28;20020;-81
2023/09/17 05:01:19;;;;;;;3.35;2.47;;;;;;;;;;4971011;28;20054;-82
2023/09/17 05:03:46;;;;;;;4.60;2.97;;;;;;;;;;4973101;28;20050;-82
2023/09/17 05:06:12;;;;;;;5.40;2.90;;;;;;;;;;4965377;28;20030;-81
2023/09/17 05:08:37;;;;;;;3.95;2.53;;;;;;;;;;4947076;28;20019;-83
2023/09/17 05:11:03;;;;;;;4.00;2.95;;;;;;;;;;4964366;28;20057;-80
2023/09/17 05:13:28;;;;;;;2.90;2.67;;;;;;;;;;4963554;28;20058;-82
2023/09/17 05:15:53;;;;;;;4.22;2.90;;;;;;;;;;4948333;28;20042;-82
2023/09/17 05:18:19;;;;;;;4.15;2.75;;;;;;;;;;4979330;28;20030;-82
2023/09/17 05:20:48;;;;;;;3.53;2.72;;;;;;;;;;4995195;28;20025;-83
2023/09/17 05:23:14;;;;;;;3.80;2.53;;;;;;;;;;4963578;28;20031;-82
2023/09/17 05:25:39;;;;;;;2.83;2.35;;;;;;;;;;4972726;28;20046;-82
2023/09/17 05:28:06;;;;;;;4.22;3.08;;;;;;;;;;4961990;28;20028;-82
2023/09/17 05:30:35;;;;;;;4.30;2.60;;;;;;;;;;4957562;28;20027;-82
2023/09/17 05:33:02;;;;;;;4.22;2.47;;;;;;;;;;4984583;28;20034;-81
2023/09/17 05:35:27;;;;;;;3.03;2.47;;;;;;;;;;4950505;28;20016;-83
2023/09/17 05:37:52;;;;;;;4.80;2.60;;;;;;;;;;4988717;28;20101;-81
2023/09/17 05:40:18;;;;;;;4.53;3.00;;;;;;;;;;4945902;28;20095;-82
2023/09/17 05:42:43;;;;;;;3.83;2.65;;;;;;;;;;4955465;28;20022;-82
2023/09/17 05:45:09;;;;;;;4.10;2.78;;;;;;;;;;4978491;28;20027;-82
2023/09/17 05:47:35;;;;;;;3.90;3.00;;;;;;;;;;5012285;28;20026;-82
2023/09/17 05:50:00;;;;;;;2.97;2.45;;;;;;;;;;4970470;28;20027;-82
2023/09/17 05:52:25;;;;;;;4.75;3.10;;;;;;;;;;4962391;28;20031;-82
2023/09/17 05:54:51;;;;;;;5.28;2.75;;;;;;;;;;4982795;28;20034;-82
2023/09/17 05:57:16;;;;;;;5.35;3.45;;;;;;;;;;4983036;28;20054;-82
2023/09/17 05:59:42;;;;;;;4.93;2.97;;;;;;;;;;4979945;28;20019;-82
2023/09/17 06:02:09;;;;;;;3.53;2.38;;;;;;;;;;4954103;28;20062;-82
2023/09/17 06:04:35;;;;;;;4.72;3.22;;;;;;;;;;4950055;28;20043;-82
2023/09/17 06:07:01;;;;;;;3.63;2.58;;;;;;;;;;4977599;28;20077;-83
2023/09/17 06:09:26;;;;;;;4.13;3.10;;;;;;;;;;4955888;28;20566;-82
2023/09/17 06:11:51;;;;;;;4.00;3.13;;;;;;;;;;4974863;28;20023;-83
2023/09/17 06:14:17;;;;;;;3.28;2.50;;;;;;;;;;5023584;28;20085;-82
2023/09/17 06:16:42;;;;;;;4.28;3.08;;;;;;;;;;4982242;28;20031;-83
2023/09/17 06:19:08;;;;;;;6.18;3.67;;;;;;;;;;4968610;28;20027;-82
2023/09/17 06:21:33;;;;;;;4.22;3.15;;;;;;;;;;5035425;28;20032;-81
2023/09/17 06:23:58;;;;;;;4.75;3.30;;;;;;;;;;4970851;28;20027;-82
2023/09/17 06:26:24;;;;;;;4.57;3.30;;;;;;;;;;4987651;28;20017;-82
2023/09/17 06:28:49;;;;;;;4.90;2.83;;;;;;;;;;4971029;28;20031;-82
2023/09/17 06:31:15;;;;;;;4.55;2.92;;;;;;;;;;4965163;28;20035;-83
2023/09/17 06:33:40;;;;;;;6.07;3.25;;;;;;;;;;4943737;28;20050;-82
2023/09/17 06:36:06;;;;;;;6.95;3.70;;;;;;;;;;4997077;28;20089;-82
2023/09/17 06:38:31;;;;;;;3.80;3.00;;;;;;;;;;4968503;28;20019;-83
2023/09/17 06:40:57;;;;;;;3.95;3.00;;;;;;;;;;4953054;28;20103;-83
2023/09/17 06:43:22;;;;;;;4.53;3.00;;;;;;;;;;4959689;28;20015;-83
2023/09/17 06:45:48;;;;;;;3.33;2.63;;;;;;;;;;4946731;28;20102;-82
2023/09/17 06:48:14;;;;;;;4.80;3.10;;;;;;;;;;4954869;28;20027;-83
2023/09/17 06:50:39;;;;;;;3.08;2.78;;;;;;;;;;4965790;28;20035;-83
2023/09/17 06:53:04;;;;;;;5.22;2.78;;;;;;;;;;4969321;28;20552;-82
2023/09/17 06:55:30;;;;;;;5.55;3.13;;;;;;;;;;4971156;28;20019;-82
2023/09/17 06:57:55;;;;;;;3.42;2.58;;;;;;;;;;4954644;28;20027;-82
2023/09/17 07:00:20;;;;;;;7.55;2.90;;;;;;;;;;4975050;28;20043;-83
2023/09/17 07:02:46;;;;;;;3.33;2.55;;;;;;;;;;4966080;28;20434;-82
2023/09/17 07:05:12;;;;;;;3.53;2.45;;;;;;;;;;4966853;28;20019;-83
2023/09/17 07:07:37;;;;;;;2.95;2.38;;;;;;;;;;4975047;28;20046;-83
2023/09/17 07:10:04;;;;;;;3.55;2.80;;;;;;;;;;4943503;28;20024;-83
2023/09/17 07:12:29;;;;;;;3.70;2.70;;;;;;;;;;4981850;28;20020;-83
2023/09/17 07:14:55;;;;;;;5.05;2.55;;;;;;;;;;5004224;28;20043;-84
2023/09/17 07:17:20;;;;;;;2.90;2.33;;;;;;;;;;4944045;29;20042;-80
2023/09/17 07:19:46;;;;;;;2.72;2.13;;;;;;;;;;4966428;28;20030;-81
2023/09/17 07:22:14;;;;;;;2.95;2.50;;;;;;;;;;4984183;28;20056;-82
2023/09/17 07:24:41;;;;;;;2.95;2.40;;;;;;;;;;4955753;28;20030;-83
2023/09/17 07:27:06;;;;;;;3.33;2.60;;;;;;;;;;4988466;28;20042;-80
2023/09/17 07:29:32;;;;;;;3.35;2.55;;;;;;;;;;4989521;28;20051;-83
2023/09/17 07:31:57;;;;;;;2.83;2.28;;;;;;;;;;4981493;28;20023;-80
2023/09/17 07:34:24;;;;;;;3.38;2.33;;;;;;;;;;4950743;28;20034;-80
2023/09/17 07:36:50;;;;;;;4.13;2.28;;;;;;;;;;4966722;28;20088;-81
2023/09/17 07:39:15;;;;;;;5.13;2.50;;;;;;;;;;4973530;28;20416;-82
2023/09/17 07:41:41;;;;;;;2.72;2.15;;;;;;;;;;4950603;29;20397;-81
2023/09/17 07:44:07;;;;;;;3.33;2.25;;;;;;;;;;4959275;28;20416;-82
2023/09/17 07:46:32;;;;;;;3.00;2.55;;;;;;;;;;4967363;28;20026;-81
2023/09/17 07:49:00;;;;;;;5.43;2.38;;;;;;;;;;4961206;28;20023;-82
2023/09/17 07:51:25;;;;;;;2.90;2.15;;;;;;;;;;4966237;28;20102;-81
2023/09/17 07:53:51;;;;;;;4.28;2.28;;;;;;;;;;4983266;28;20418;-80
2023/09/17 07:56:16;;;;;;;3.10;2.20;;;;;;;;;;4974777;28;20027;-81
2023/09/17 07:58:41;;;;;;;2.92;2.30;;;;;;;;;;4957855;28;20030;-83
2023/09/17 08:01:07;;;;;;;2.75;2.20;;;;;;;;;;4953201;28;20026;-81
2023/09/17 08:03:32;;;;;;;6.00;2.65;;;;;;;;;;4956474;28;20039;-81
2023/09/17 08:05:58;;;;;;;2.78;2.50;;;;;;;;;;4952484;28;20084;-83
2023/09/17 08:08:23;;;;;;;3.67;2.40;;;;;;;;;;4967473;28;20015;-82
2023/09/17 08:10:49;;;;;;;2.65;2.30;;;;;;;;;;4965327;28;20046;-83
2023/09/17 08:13:14;;;;;;;2.95;2.25;;;;;;;;;;4971411;28;20030;-83
2023/09/17 08:15:39;;;;;;;2.38;2.15;;;;;;;;;;4956973;28;20660;-81
2023/09/17 08:18:05;;;;;;;4.88;2.42;;;;;;;;;;4973377;28;20044;-82
2023/09/17 08:20:31;;;;;;;2.40;2.20;;;;;;;;;;4982829;28;20027;-82
2023/09/17 08:22:57;;;;;;;3.70;2.63;;;;;;;;;;4966215;28;20042;-84
2023/09/17 08:25:22;;;;;;;2.22;2.03;;;;;;;;;;5013061;28;20037;-82
2023/09/17 08:27:48;;;;;;;4.00;2.22;;;;;;;;;;4987871;28;20045;-86
2023/09/17 08:30:15;;;;;;;2.20;2.00;;;;;;;;;;4949076;28;20039;-82
2023/09/17 08:32:43;;;;;;;5.57;2.30;;;;;;;;;;4950345;28;20011;-83
2023/09/17 08:35:09;;;;;;;3.33;2.47;;;;;;;;;;4974285;28;20027;-82
2023/09/17 08:37:38;;;;;;;2.70;2.38;;;;;;;;;;5002614;28;20110;-82
2023/09/17 08:40:11;;;;;;;2.92;2.05;;;;;;;;;;4959428;28;20035;-82
2023/09/17 08:42:41;;;;;;;2.80;1.90;;;;;;;;;;5003476;28;20027;-83
2023/09/17 08:45:11;;;;;;;3.28;2.30;;;;;;;;;;4963669;28;20034;-82
2023/09/17 08:47:38;;;;;;;3.05;2.00;;;;;;;;;;4961423;28;20038;-82
2023/09/17 08:50:05;;;;;;;4.40;2.20;;;;;;;;;;4948961;28;20033;-81
2023/09/17 08:52:35;;;;;;;3.08;2.40;;;;;;;;;;4958538;28;20027;-81
2023/09/17 08:55:02;;;;;;;2.30;2.10;;;;;;;;;;4957501;28;20077;-83
2023/09/17 08:57:30;;;;;;;3.03;2.10;;;;;;;;;;4943995;28;20053;-81
2023/09/17 09:00:07;;;;;;;2.28;2.03;;;;;;;;;;4974475;28;20038;-84
2023/09/17 09:02:56;;;;;;;2.25;2.05;;;;;;;;;;4952628;28;20027;-83
2023/09/17 09:05:25;;;;;;;3.97;2.22;;;;;;;;;;4978006;28;20513;-84
2023/09/17 09:07:51;;;;;;;2.30;2.10;;;;;;;;;;4975727;28;20031;-82
2023/09/17 09:13:40;;;;;;;3.53;2.05;;;;;;;;;;4959705;28;20605;-83
2023/09/17 09:16:05;;;;;;;3.97;1.98;;;;;;;;;;4949822;28;20023;-82
2023/09/17 09:18:31;;;;;;;2.20;2.00;;;;;;;;;;4996406;28;20019;-83
2023/09/17 09:20:56;;;;;;;2.05;1.85;;;;;;;;;;4956262;28;20037;-84
2023/09/17 09:23:23;;;;;;;2.90;2.08;;;;;;;;;;5018159;28;20028;-87
2023/09/17 09:25:48;;;;;;;2.75;1.90;;;;;;;;;;4970170;28;20058;-82
2023/09/17 09:28:14;;;;;;;3.38;2.30;;;;;;;;;;4980723;28;20027;-83
2023/09/17 09:30:42;;;;;;;3.42;2.22;;;;;;;;;;4995810;28;20030;-82
2023/09/17 09:33:08;;;;;;;4.35;1.80;;;;;;;;;;4946646;28;20034;-83
2023/09/17 09:35:33;;;;;;;4.57;1.90;;;;;;;;;;5008873;28;20024;-84
2023/09/17 09:38:01;;;;;;;2.70;2.03;;;;;;;;;;4949641;28;20019;-82
2023/09/17 09:40:26;;;;;;;3.38;1.65;;;;;;;;;;4950974;28;20085;-83
2023/09/17 09:42:52;;;;;;;2.53;1.60;;;;;;;;;;4944694;29;20466;-83
2023/09/17 09:45:18;;;;;;;4.80;2.10;;;;;;;;;;4955900;28;20027;-83
2023/09/17 09:47:54;;;;;;;3.58;2.05;;;;;;;;;;5008350;28;20496;-83
2023/09/17 09:50:23;;;;;;;5.57;2.13;;;;;;;;;;4953911;28;20027;-81
2023/09/17 09:52:49;;;;;;;3.38;1.83;;;;;;;;;;4991671;28;20015;-82
2023/09/17 09:55:14;;;;;;;3.55;1.70;;;;;;;;;;4943876;28;20023;-81
2023/09/17 09:57:42;;;;;;;3.00;1.60;;;;;;;;;;4946153;28;20477;-81
2023/09/17 10:00:15;;;;;;;3.10;1.45;;;;;;;;;;4969005;28;20070;-81
2023/09/17 10:02:42;;;;;;;1.90;1.65;;;;;;;;;;4972254;28;20379;-82
2023/09/17 10:05:12;;;;;;;2.75;1.38;;;;;;;;;;5000891;28;20057;-83
2023/09/17 10:07:38;;;;;;;2.95;1.63;;;;;;;;;;4960051;28;20092;-83
2023/09/17 10:10:04;;;;;;;5.45;1.30;;;;;;;;;;4975225;28;20118;-84
2023/09/17 10:12:29;;;;;;;4.93;1.65;;;;;;;;;;4963359;28;20088;-83
2023/09/17 10:14:55;;;;;;;1.45;1.35;;;;;;;;;;4962814;28;20024;-82
2023/09/17 10:17:20;;;;;;;4.15;1.50;;;;;;;;;;4995221;28;20024;-83
2023/09/17 10:19:47;;;;;;;1.42;0.98;;;;;;;;;;4935486;28;20079;-82
2023/09/17 10:22:15;;;;;;;3.55;1.13;;;;;;;;;;4991668;28;20029;-82
2023/09/17 10:24:42;;;;;;;2.58;1.38;;;;;;;;;;5005450;28;20016;-82
2023/09/17 10:27:08;;;;;;;4.75;2.05;;;;;;;;;;4951555;28;20374;-83
2023/09/17 10:29:35;;;;;;;2.95;1.00;;;;;;;;;;4949481;28;20034;-82
2023/09/17 10:32:03;;;;;;;2.30;1.20;;;;;;;;;;5052583;28;20290;-81
2023/09/17 10:34:31;;;;;;;2.33;1.23;;;;;;;;;;4960192;28;20023;-82
2023/09/17 10:36:58;;;;;;;2.97;1.38;;;;;;;;;;4952740;29;20030;-81
2023/09/17 10:39:27;;;;;;;3.15;1.30;;;;;;;;;;4968699;28;20118;-81
2023/09/17 10:41:52;;;;;;;3.13;1.30;;;;;;;;;;4975364;28;20428;-82
2023/09/17 10:44:20;;;;;;;3.92;2.03;;;;;;;;;;4956048;28;20019;-81
2023/09/17 10:46:47;;;;;;;4.03;1.40;;;;;;;;;;4934915;28;20058;-81
2023/09/17 10:49:13;;;;;;;3.15;2.10;;;;;;;;;;4999184;28;20024;-82
2023/09/17 10:51:39;;;;;;;1.27;1.17;;;;;;;;;;4954513;28;20106;-81
2023/09/17 10:54:07;;;;;;;3.75;1.45;;;;;;;;;;4970536;28;20043;-82
2023/09/17 10:56:45;;;;;;;3.45;1.40;;;;;;;;;;4936608;28;20077;-85
2023/09/17 10:59:17;;;;;;;4.47;1.27;;;;;;;;;;5003674;28;20044;-81
2023/09/17 11:01:44;;;;;;;5.88;1.58;;;;;;;;;;4967418;28;20023;-81
2023/09/17 11:04:16;;;;;;;2.42;1.50;;;;;;;;;;4972786;28;20023;-82
2023/09/17 11:06:46;;;;;;;1.67;0.88;;;;;;;;;;4980211;28;20024;-81
2023/09/17 11:09:13;;;;;;;2.63;1.30;;;;;;;;;;4972133;28;20027;-82
2023/09/17 11:11:40;;;;;;;3.42;1.38;;;;;;;;;;4973295;28;20027;-81
2023/09/17 11:14:06;;;;;;;2.35;1.10;;;;;;;;;;4962260;28;20153;-82
2023/09/17 11:16:34;;;;;;;3.72;1.40;;;;;;;;;;4957571;28;20059;-82
2023/09/17 11:19:15;;;;;;;3.55;1.63;;;;;;;;;;5017433;28;20027;-82
2023/09/17 11:21:46;;;;;;;1.20;1.10;;;;;;;;;;5052876;28;20116;-83
2023/09/17 11:24:12;;;;;;;1.67;1.30;;;;;;;;;;4960280;28;20093;-82
2023/09/17 11:26:40;;;;;;;3.33;1.60;;;;;;;;;;4939112;28;20035;-82
2023/09/17 11:29:09;;;;;;;4.00;1.65;;;;;;;;;;4952969;28;20028;-82
2023/09/17 11:31:55;;;;;;;1.77;1.42;;;;;;;;;;4989582;28;20252;-82
2023/09/17 11:34:56;;;;;;;4.72;1.55;;;;;;;;;;5019168;28;20042;-82
2023/09/17 11:37:34;;;;;;;3.75;1.45;;;;;;;;;;4976320;28;20043;-81
2023/09/17 11:40:00;;;;;;;3.00;1.50;;;;;;;;;;4975069;28;20003;-82
2023/09/17 11:42:26;;;;;;;5.88;1.70;;;;;;;;;;4952941;28;20054;-81
2023/09/17 11:44:55;;;;;;;2.15;1.33;;;;;;;;;;4956563;28;20028;-82
2023/09/17 11:47:20;;;;;;;2.30;1.50;;;;;;;;;;4985901;28;20032;-82
2023/09/17 11:49:46;;;;;;;3.72;1.58;;;;;;;;;;4957877;28;20027;-82
2023/09/17 11:52:27;;;;;;;1.30;1.17;;;;;;;;;;4951049;28;20030;-82
2023/09/17 11:55:38;;;;;;;1.25;1.15;;;;;;;;;;4960901;28;20110;-81
2023/09/17 12:01:10;;;;;;;1.75;1.23;;;;;;;;;;4997591;28;20103;-81
2023/09/17 12:07:07;;;;;;;2.78;1.60;;;;;;;;;;4977676;28;20038;-82
2023/09/17 12:12:03;;;;;;;3.33;1.17;;;;;;;;;;5056426;22;20221;-89
2023/09/17 12:14:29;;;;;;;2.65;1.25;;;;;;;;;;5062387;28;20431;-87
2023/09/17 12:16:55;;;;;;;2.55;1.10;;;;;;;;;;5081698;28;20436;-87
2023/09/17 12:19:21;;;;;;;3.63;1.30;;;;;;;;;;5084997;28;20036;-86
2023/09/17 12:21:49;;;;;;;1.40;0.95;;;;;;;;;;5085291;28;20024;-87
2023/09/17 12:24:20;;;;;;;2.80;1.15;;;;;;;;;;5071034;28;20032;-88
2023/09/17 12:29:37;;;;;;;3.42;1.10;;;;;;;;;;5076808;28;20025;-88
2023/09/17 12:32:04;;;;;;;2.63;1.30;;;;;;;;;;5071940;28;20096;-88
2023/09/17 12:34:29;;;;;;;1.92;1.13;;;;;;;;;;5072777;28;20559;-88
2023/09/17 12:36:55;;;;;;;4.30;1.30;;;;;;;;;;5073930;28;20028;-88
2023/09/17 12:39:20;;;;;;;3.65;1.50;;;;;;;;;;5073932;28;20027;-88
2023/09/17 12:41:47;;;;;;;2.78;0.90;;;;;;;;;;5077614;28;20028;-87
2023/09/17 12:44:12;;;;;;;1.40;1.30;;;;;;;;;;5081386;28;20029;-87
2023/09/17 12:46:39;;;;;;;2.55;1.70;;;;;;;;;;5073160;28;20061;-87
2023/09/17 12:49:06;;;;;;;7.50;1.52;;;;;;;;;;5074331;28;20129;-87
2023/09/17 12:51:31;;;;;;;1.40;1.27;;;;;;;;;;5077267;28;20024;-87
2023/09/17 12:54:00;;;;;;;2.15;1.23;;;;;;;;;;5086769;28;20028;-87
2023/09/17 12:56:30;;;;;;;4.63;1.60;;;;;;;;;;5064832;28;20028;-88
2023/09/17 12:58:57;;;;;;;4.75;1.33;;;;;;;;;;5056335;28;20486;-87
2023/09/17 13:01:23;;;;;;;5.72;1.60;;;;;;;;;;5069628;28;20040;-89
2023/09/17 13:03:55;;;;;;;5.22;1.42;;;;;;;;;;5087965;28;20020;-89
2023/09/17 13:06:23;;;;;;;2.47;1.25;;;;;;;;;;5070157;28;20551;-89
2023/09/17 13:08:49;;;;;;;2.85;1.40;;;;;;;;;;5070414;28;20033;-89
2023/09/17 13:11:16;;;;;;;1.98;1.23;;;;;;;;;;5086709;28;20025;-89
2023/09/17 13:13:49;;;;;;;3.08;1.50;;;;;;;;;;5081286;28;20036;-89
2023/09/17 13:16:16;;;;;;;3.53;1.50;;;;;;;;;;5076716;28;20060;-89
2023/09/17 13:18:42;;;;;;;2.25;1.02;;;;;;;;;;5072046;28;20021;-89
2023/09/17 13:21:07;;;;;;;1.77;1.42;;;;;;;;;;5066224;28;20051;-88
2023/09/17 13:23:36;;;;;;;5.03;1.50;;;;;;;;;;5075172;28;20029;-89
2023/09/17 13:26:02;;;;;;;3.80;1.52;;;;;;;;;;5065684;28;20024;-89
2023/09/17 13:28:27;;;;;;;2.58;1.25;;;;;;;;;;5080512;28;20085;-88
2023/09/17 13:30:53;;;;;;;1.50;1.00;;;;;;;;;;5071094;28;20492;-88
2023/09/17 13:33:19;;;;;;;2.40;1.33;;;;;;;;;;5059326;28;20366;-89
2023/09/17 13:35:50;;;;;;;2.17;1.15;;;;;;;;;;5062444;28;20081;-88
2023/09/17 13:38:17;;;;;;;4.10;1.67;;;;;;;;;;5068673;28;20116;-88
2023/09/17 13:40:51;;;;;;;1.20;1.10;;;;;;;;;;5084846;28;20040;-89
2023/09/17 13:43:16;;;;;;;3.53;1.35;;;;;;;;;;5071925;28;20036;-89
2023/09/17 13:45:55;;;;;;;5.63;1.70;;;;;;;;;;5045651;28;20016;-88
2023/09/17 13:48:25;;;;;;;1.25;1.10;;;;;;;;;;5061620;28;20028;-88
2023/09/17 13:50:51;;;;;;;1.30;1.20;;;;;;;;;;5073839;28;20047;-88
2023/09/17 13:53:17;;;;;;;4.25;1.77;;;;;;;;;;5061063;28;20402;-88
2023/09/17 13:55:43;;;;;;;2.72;1.15;;;;;;;;;;5078577;28;20029;-88
2023/09/17 13:58:10;;;;;;;2.25;1.38;;;;;;;;;;5068555;28;20032;-88
2023/09/17 14:00:35;;;;;;;3.20;1.50;;;;;;;;;;5087917;28;20024;-88
2023/09/17 14:03:08;;;;;;;2.30;1.40;;;;;;;;;;5063277;28;20084;-88
2023/09/17 14:05:33;;;;;;;5.15;1.35;;;;;;;;;;5085497;28;20031;-88
2023/09/17 14:08:00;;;;;;;2.17;1.17;;;;;;;;;;5084770;28;20572;-89
2023/09/17 14:10:26;;;;;;;2.72;1.33;;;;;;;;;;5063247;28;20025;-89
2023/09/17 14:12:52;;;;;;;3.40;1.42;;;;;;;;;;5077860;28;20075;-87
2023/09/17 14:15:17;;;;;;;3.20;1.42;;;;;;;;;;5084511;28;20111;-87
2023/09/17 14:17:43;;;;;;;2.45;1.40;;;;;;;;;;5064600;28;20087;-86
2023/09/17 14:20:09;;;;;;;1.20;1.08;;;;;;;;;;5065514;28;20505;-87
2023/09/17 14:22:38;;;;;;;3.75;1.25;;;;;;;;;;5067659;28;20021;-88
2023/09/17 14:25:05;;;;;;;3.90;1.60;;;;;;;;;;5075128;28;20038;-87
2023/09/17 14:27:31;;;;;;;2.33;1.35;;;;;;;;;;5063139;28;20052;-88
2023/09/17 14:29:56;;;;;;;2.75;1.45;;;;;;;;;;5047754;28;20438;-87
2023/09/17 14:32:22;;;;;;;3.30;1.50;;;;;;;;;;5087406;28;20023;-87
2023/09/17 14:34:49;;;;;;;1.95;1.33;;;;;;;;;;5045255;28;20057;-88
2023/09/17 14:37:14;;;;;;;6.95;1.52;;;;;;;;;;5068747;28;20104;-87
2023/09/17 14:39:40;;;;;;;2.17;1.02;;;;;;;;;;5086852;28;20032;-87
2023/09/17 14:42:05;;;;;;;3.50;1.30;;;;;;;;;;5067449;28;20036;-87
2023/09/17 14:44:32;;;;;;;2.10;1.45;;;;;;;;;;5085884;28;20418;-87
2023/09/17 14:46:59;;;;;;;1.77;1.20;;;;;;;;;;5082197;28;20092;-87
2023/09/17 14:49:25;;;;;;;2.72;1.70;;;;;;;;;;5066762;28;20413;-87
2023/09/17 14:51:51;;;;;;;2.40;1.20;;;;;;;;;;5086413;28;20123;-87
2023/09/17 14:54:23;;;;;;;3.03;1.35;;;;;;;;;;5059853;28;20021;-88
2023/09/17 14:56:49;;;;;;;1.98;1.08;;;;;;;;;;5063870;28;20024;-87